sensor_id;sensor_type;location;lat;lon;timestamp;temperature;humidity
42019;DHT22;27703;51.980;5.848;2023-04-03T00:01:09;6.20;99.90
42019;DHT22;27703;51.980;5.848;2023-04-03T00:03:36;6.10;99.90
42019;DHT22;27703;51.980;5.848;2023-04-03T00:06:02;6.10;99.90
42019;DHT22;27703;51.980;5.848;2023-04-03T00:08:27;6.10;99.90
42019;DHT22;27703;51.980;5.848;2023-04-03T00:10:55;6.00;99.90
42019;DHT22;27703;51.980;5.848;2023-04-03T00:13:21;6.00;99.90
42019;DHT22;27703;51.980;5.848;2023-04-03T00:15:47;6.00;99.90
42019;DHT22;27703;51.980;5.848;2023-04-03T00:18:12;6.00;99.90
42019;DHT22;27703;51.980;5.848;2023-04-03T00:20:38;6.00;99.90
42019;DHT22;27703;51.980;5.848;2023-04-03T00:23:03;5.90;99.90
42019;DHT22;27703;51.980;5.848;2023-04-03T00:25:29;5.90;99.90
42019;DHT22;27703;51.980;5.848;2023-04-03T00:27:54;5.90;99.90
42019;DHT22;27703;51.980;5.848;2023-04-03T00:30:21;5.90;99.90
42019;DHT22;27703;51.980;5.848;2023-04-03T00:32:48;5.80;99.90
42019;DHT22;27703;51.980;5.848;2023-04-03T00:35:14;5.80;99.90
42019;DHT22;27703;51.980;5.848;2023-04-03T00:37:41;5.80;99.90
42019;DHT22;27703;51.980;5.848;2023-04-03T00:40:08;5.80;99.90
42019;DHT22;27703;51.980;5.848;2023-04-03T00:42:36;5.80;99.90
42019;DHT22;27703;51.980;5.848;2023-04-03T00:47:28;5.70;99.90
42019;DHT22;27703;51.980;5.848;2023-04-03T00:49:55;5.70;99.90
42019;DHT22;27703;51.980;5.848;2023-04-03T00:52:23;5.70;99.90
42019;DHT22;27703;51.980;5.848;2023-04-03T00:54:52;5.70;99.90
42019;DHT22;27703;51.980;5.848;2023-04-03T00:57:21;5.70;99.90
42019;DHT22;27703;51.980;5.848;2023-04-03T00:59:50;5.60;99.90
42019;DHT22;27703;51.980;5.848;2023-04-03T01:02:17;5.60;99.90
42019;DHT22;27703;51.980;5.848;2023-04-03T01:04:44;5.60;99.90
42019;DHT22;27703;51.980;5.848;2023-04-03T01:07:12;5.60;99.90
42019;DHT22;27703;51.980;5.848;2023-04-03T01:09:39;5.60;99.90
42019;DHT22;27703;51.980;5.848;2023-04-03T01:12:23;5.60;99.90
42019;DHT22;27703;51.980;5.848;2023-04-03T01:14:52;5.60;99.90
42019;DHT22;27703;51.980;5.848;2023-04-03T01:17:51;5.60;99.90
42019;DHT22;27703;51.980;5.848;2023-04-03T01:28:19;5.50;99.90
42019;DHT22;27703;51.980;5.848;2023-04-03T01:30:53;5.50;99.90
42019;DHT22;27703;51.980;5.848;2023-04-03T01:33:22;5.50;99.90
42019;DHT22;27703;51.980;5.848;2023-04-03T01:35:47;5.50;99.90
42019;DHT22;27703;51.980;5.848;2023-04-03T01:38:13;5.50;99.90
42019;DHT22;27703;51.980;5.848;2023-04-03T01:40:38;5.40;99.90
42019;DHT22;27703;51.980;5.848;2023-04-03T01:43:04;5.40;99.90
42019;DHT22;27703;51.980;5.848;2023-04-03T01:45:30;5.40;99.90
42019;DHT22;27703;51.980;5.848;2023-04-03T01:47:56;5.40;99.90
42019;DHT22;27703;51.980;5.848;2023-04-03T01:50:21;5.40;99.90
42019;DHT22;27703;51.980;5.848;2023-04-03T01:52:47;5.40;99.90
42019;DHT22;27703;51.980;5.848;2023-04-03T01:55:13;5.40;99.90
42019;DHT22;27703;51.980;5.848;2023-04-03T01:57:38;5.40;99.90
42019;DHT22;27703;51.980;5.848;2023-04-03T02:00:04;5.40;99.90
42019;DHT22;27703;51.980;5.848;2023-04-03T02:02:30;5.40;99.90
42019;DHT22;27703;51.980;5.848;2023-04-03T02:04:55;5.30;99.90
42019;DHT22;27703;51.980;5.848;2023-04-03T02:07:21;5.30;99.90
42019;DHT22;27703;51.980;5.848;2023-04-03T02:09:46;5.30;99.90
42019;DHT22;27703;51.980;5.848;2023-04-03T02:12:12;5.30;99.90
42019;DHT22;27703;51.980;5.848;2023-04-03T02:14:37;5.30;99.90
42019;DHT22;27703;51.980;5.848;2023-04-03T02:17:03;5.30;99.90
42019;DHT22;27703;51.980;5.848;2023-04-03T02:19:34;5.30;99.90
42019;DHT22;27703;51.980;5.848;2023-04-03T02:22:01;5.30;99.90
42019;DHT22;27703;51.980;5.848;2023-04-03T02:24:26;5.20;99.90
42019;DHT22;27703;51.980;5.848;2023-04-03T02:26:52;5.30;99.90
42019;DHT22;27703;51.980;5.848;2023-04-03T02:29:18;5.20;99.90
42019;DHT22;27703;51.980;5.848;2023-04-03T02:31:43;5.20;99.90
42019;DHT22;27703;51.980;5.848;2023-04-03T02:34:09;5.20;99.90
42019;DHT22;27703;51.980;5.848;2023-04-03T02:36:34;5.20;99.90
42019;DHT22;27703;51.980;5.848;2023-04-03T02:39:00;5.20;99.90
42019;DHT22;27703;51.980;5.848;2023-04-03T02:41:25;5.20;99.90
42019;DHT22;27703;51.980;5.848;2023-04-03T02:43:58;5.20;99.90
42019;DHT22;27703;51.980;5.848;2023-04-03T02:46:24;5.10;99.90
42019;DHT22;27703;51.980;5.848;2023-04-03T02:48:49;5.10;99.90
42019;DHT22;27703;51.980;5.848;2023-04-03T02:51:15;5.10;99.90
42019;DHT22;27703;51.980;5.848;2023-04-03T02:53:40;5.10;99.90
42019;DHT22;27703;51.980;5.848;2023-04-03T02:56:06;5.10;99.90
42019;DHT22;27703;51.980;5.848;2023-04-03T02:58:31;5.10;99.90
42019;DHT22;27703;51.980;5.848;2023-04-03T03:00:57;5.10;99.90
42019;DHT22;27703;51.980;5.848;2023-04-03T03:03:23;5.10;99.90
42019;DHT22;27703;51.980;5.848;2023-04-03T03:05:48;5.00;99.90
42019;DHT22;27703;51.980;5.848;2023-04-03T03:08:14;5.00;99.90
42019;DHT22;27703;51.980;5.848;2023-04-03T03:10:40;5.00;99.90
42019;DHT22;27703;51.980;5.848;2023-04-03T03:13:05;5.00;99.90
42019;DHT22;27703;51.980;5.848;2023-04-03T03:15:31;5.00;99.90
42019;DHT22;27703;51.980;5.848;2023-04-03T03:17:56;5.00;99.90
42019;DHT22;27703;51.980;5.848;2023-04-03T03:20:22;5.00;99.90
42019;DHT22;27703;51.980;5.848;2023-04-03T03:22:47;4.90;99.90
42019;DHT22;27703;51.980;5.848;2023-04-03T03:25:13;4.90;99.90
42019;DHT22;27703;51.980;5.848;2023-04-03T03:27:39;4.90;99.90
42019;DHT22;27703;51.980;5.848;2023-04-03T03:30:05;4.90;99.90
42019;DHT22;27703;51.980;5.848;2023-04-03T03:32:31;4.90;99.90
42019;DHT22;27703;51.980;5.848;2023-04-03T03:34:57;4.90;99.90
42019;DHT22;27703;51.980;5.848;2023-04-03T03:37:22;4.90;99.90
42019;DHT22;27703;51.980;5.848;2023-04-03T03:39:48;4.80;99.90
42019;DHT22;27703;51.980;5.848;2023-04-03T03:42:13;4.80;99.90
42019;DHT22;27703;51.980;5.848;2023-04-03T03:44:39;4.80;99.90
42019;DHT22;27703;51.980;5.848;2023-04-03T03:47:04;4.80;99.90
42019;DHT22;27703;51.980;5.848;2023-04-03T03:49:31;4.80;99.90
42019;DHT22;27703;51.980;5.848;2023-04-03T03:51:56;4.70;99.90
42019;DHT22;27703;51.980;5.848;2023-04-03T03:54:22;4.70;99.90
42019;DHT22;27703;51.980;5.848;2023-04-03T03:56:47;4.70;99.90
42019;DHT22;27703;51.980;5.848;2023-04-03T03:59:13;4.70;99.90
42019;DHT22;27703;51.980;5.848;2023-04-03T04:01:39;4.70;99.90
42019;DHT22;27703;51.980;5.848;2023-04-03T04:04:05;4.60;99.90
42019;DHT22;27703;51.980;5.848;2023-04-03T04:06:30;4.60;99.90
42019;DHT22;27703;51.980;5.848;2023-04-03T04:08:56;4.60;99.90
42019;DHT22;27703;51.980;5.848;2023-04-03T04:11:21;4.50;99.90
42019;DHT22;27703;51.980;5.848;2023-04-03T04:13:47;4.50;99.90
42019;DHT22;27703;51.980;5.848;2023-04-03T04:16:13;4.50;99.90
42019;DHT22;27703;51.980;5.848;2023-04-03T04:18:38;4.40;99.90
42019;DHT22;27703;51.980;5.848;2023-04-03T04:21:04;4.50;99.90
42019;DHT22;27703;51.980;5.848;2023-04-03T04:23:29;4.40;99.90
42019;DHT22;27703;51.980;5.848;2023-04-03T04:25:55;4.40;99.90
42019;DHT22;27703;51.980;5.848;2023-04-03T04:28:20;4.40;99.90
42019;DHT22;27703;51.980;5.848;2023-04-03T04:30:46;4.40;99.90
42019;DHT22;27703;51.980;5.848;2023-04-03T04:33:11;4.30;99.90
42019;DHT22;27703;51.980;5.848;2023-04-03T04:35:39;4.30;99.90
42019;DHT22;27703;51.980;5.848;2023-04-03T04:38:04;4.30;99.90
42019;DHT22;27703;51.980;5.848;2023-04-03T04:40:30;4.30;99.90
42019;DHT22;27703;51.980;5.848;2023-04-03T04:42:56;4.30;99.90
42019;DHT22;27703;51.980;5.848;2023-04-03T04:45:21;4.20;99.90
42019;DHT22;27703;51.980;5.848;2023-04-03T04:47:47;4.20;99.90
42019;DHT22;27703;51.980;5.848;2023-04-03T04:50:12;4.10;99.90
42019;DHT22;27703;51.980;5.848;2023-04-03T04:52:38;4.10;99.90
42019;DHT22;27703;51.980;5.848;2023-04-03T04:55:04;4.10;99.90
42019;DHT22;27703;51.980;5.848;2023-04-03T04:57:30;4.10;99.90
42019;DHT22;27703;51.980;5.848;2023-04-03T04:59:56;4.00;99.90
42019;DHT22;27703;51.980;5.848;2023-04-03T05:02:21;4.00;99.90
42019;DHT22;27703;51.980;5.848;2023-04-03T05:04:47;4.00;99.90
42019;DHT22;27703;51.980;5.848;2023-04-03T05:07:15;3.90;99.90
42019;DHT22;27703;51.980;5.848;2023-04-03T05:09:41;3.90;99.90
42019;DHT22;27703;51.980;5.848;2023-04-03T05:12:07;3.90;99.90
42019;DHT22;27703;51.980;5.848;2023-04-03T05:14:33;3.90;99.90
42019;DHT22;27703;51.980;5.848;2023-04-03T05:16:58;3.90;99.90
42019;DHT22;27703;51.980;5.848;2023-04-03T05:19:24;3.90;99.90
42019;DHT22;27703;51.980;5.848;2023-04-03T05:21:49;3.90;99.90
42019;DHT22;27703;51.980;5.848;2023-04-03T05:24:16;3.80;99.90
42019;DHT22;27703;51.980;5.848;2023-04-03T05:26:42;3.80;99.90
42019;DHT22;27703;51.980;5.848;2023-04-03T05:29:08;3.80;99.90
42019;DHT22;27703;51.980;5.848;2023-04-03T05:31:33;3.80;99.90
42019;DHT22;27703;51.980;5.848;2023-04-03T05:33:59;3.80;99.90
42019;DHT22;27703;51.980;5.848;2023-04-03T05:36:25;3.80;99.90
42019;DHT22;27703;51.980;5.848;2023-04-03T05:38:51;3.80;99.90
42019;DHT22;27703;51.980;5.848;2023-04-03T05:41:18;3.90;99.90
42019;DHT22;27703;51.980;5.848;2023-04-03T05:43:44;3.80;99.90
42019;DHT22;27703;51.980;5.848;2023-04-03T05:46:14;3.90;99.90
42019;DHT22;27703;51.980;5.848;2023-04-03T05:48:40;3.90;99.90
42019;DHT22;27703;51.980;5.848;2023-04-03T05:51:07;3.90;99.90
42019;DHT22;27703;51.980;5.848;2023-04-03T05:53:35;3.90;99.90
42019;DHT22;27703;51.980;5.848;2023-04-03T05:56:03;3.90;99.90
42019;DHT22;27703;51.980;5.848;2023-04-03T05:58:28;3.90;99.90
42019;DHT22;27703;51.980;5.848;2023-04-03T06:00:54;4.00;99.90
42019;DHT22;27703;51.980;5.848;2023-04-03T06:03:20;4.00;99.90
42019;DHT22;27703;51.980;5.848;2023-04-03T06:05:46;4.00;99.90
42019;DHT22;27703;51.980;5.848;2023-04-03T06:08:12;4.00;99.90
42019;DHT22;27703;51.980;5.848;2023-04-03T06:10:38;4.00;99.90
42019;DHT22;27703;51.980;5.848;2023-04-03T06:13:04;4.00;99.90
42019;DHT22;27703;51.980;5.848;2023-04-03T06:15:29;4.00;99.90
42019;DHT22;27703;51.980;5.848;2023-04-03T06:17:55;4.10;99.90
42019;DHT22;27703;51.980;5.848;2023-04-03T06:20:21;4.20;99.90
42019;DHT22;27703;51.980;5.848;2023-04-03T06:22:47;4.20;99.90
42019;DHT22;27703;51.980;5.848;2023-04-03T06:25:13;4.20;99.90
42019;DHT22;27703;51.980;5.848;2023-04-03T06:27:40;4.30;99.90
42019;DHT22;27703;51.980;5.848;2023-04-03T06:30:07;4.30;99.90
42019;DHT22;27703;51.980;5.848;2023-04-03T06:32:33;4.30;99.90
42019;DHT22;27703;51.980;5.848;2023-04-03T06:34:58;4.30;99.90
42019;DHT22;27703;51.980;5.848;2023-04-03T06:37:24;4.40;99.90
42019;DHT22;27703;51.980;5.848;2023-04-03T06:39:54;4.40;99.90
42019;DHT22;27703;51.980;5.848;2023-04-03T06:42:20;4.40;99.90
42019;DHT22;27703;51.980;5.848;2023-04-03T06:44:46;4.50;99.90
42019;DHT22;27703;51.980;5.848;2023-04-03T06:47:13;4.50;99.90
42019;DHT22;27703;51.980;5.848;2023-04-03T06:49:39;4.50;99.90
42019;DHT22;27703;51.980;5.848;2023-04-03T06:52:05;4.60;99.90
42019;DHT22;27703;51.980;5.848;2023-04-03T06:54:31;4.60;99.90
42019;DHT22;27703;51.980;5.848;2023-04-03T06:56:57;4.70;99.90
42019;DHT22;27703;51.980;5.848;2023-04-03T06:59:23;4.80;99.90
42019;DHT22;27703;51.980;5.848;2023-04-03T07:01:49;4.80;99.90
42019;DHT22;27703;51.980;5.848;2023-04-03T07:04:14;4.90;99.90
42019;DHT22;27703;51.980;5.848;2023-04-03T07:06:40;5.00;99.90
42019;DHT22;27703;51.980;5.848;2023-04-03T07:09:07;5.00;99.90
42019;DHT22;27703;51.980;5.848;2023-04-03T07:11:33;5.00;99.90
42019;DHT22;27703;51.980;5.848;2023-04-03T07:13:58;5.10;99.90
42019;DHT22;27703;51.980;5.848;2023-04-03T07:16:24;5.10;99.90
42019;DHT22;27703;51.980;5.848;2023-04-03T07:18:50;5.20;99.90
42019;DHT22;27703;51.980;5.848;2023-04-03T07:21:15;5.30;99.90
42019;DHT22;27703;51.980;5.848;2023-04-03T07:23:41;5.40;99.90
42019;DHT22;27703;51.980;5.848;2023-04-03T07:26:06;5.50;99.90
42019;DHT22;27703;51.980;5.848;2023-04-03T07:28:33;5.50;99.90
42019;DHT22;27703;51.980;5.848;2023-04-03T07:31:07;5.60;99.90
42019;DHT22;27703;51.980;5.848;2023-04-03T07:33:34;5.70;99.90
42019;DHT22;27703;51.980;5.848;2023-04-03T07:36:00;5.70;99.90
42019;DHT22;27703;51.980;5.848;2023-04-03T07:38:26;5.70;99.90
42019;DHT22;27703;51.980;5.848;2023-04-03T07:40:52;5.80;99.90
42019;DHT22;27703;51.980;5.848;2023-04-03T07:43:19;5.90;99.90
42019;DHT22;27703;51.980;5.848;2023-04-03T07:45:46;6.00;99.90
42019;DHT22;27703;51.980;5.848;2023-04-03T07:48:15;6.00;99.90
42019;DHT22;27703;51.980;5.848;2023-04-03T07:50:41;6.10;99.90
42019;DHT22;27703;51.980;5.848;2023-04-03T07:53:07;6.20;99.90
42019;DHT22;27703;51.980;5.848;2023-04-03T07:55:33;6.30;99.90
42019;DHT22;27703;51.980;5.848;2023-04-03T07:57:59;6.40;99.90
42019;DHT22;27703;51.980;5.848;2023-04-03T08:00:24;6.40;99.90
42019;DHT22;27703;51.980;5.848;2023-04-03T08:02:50;6.40;99.90
42019;DHT22;27703;51.980;5.848;2023-04-03T08:05:20;6.50;99.90
42019;DHT22;27703;51.980;5.848;2023-04-03T08:07:46;6.50;99.90
42019;DHT22;27703;51.980;5.848;2023-04-03T08:10:12;6.60;99.90
42019;DHT22;27703;51.980;5.848;2023-04-03T08:12:38;6.60;99.90
42019;DHT22;27703;51.980;5.848;2023-04-03T08:15:04;6.70;99.90
42019;DHT22;27703;51.980;5.848;2023-04-03T08:17:30;6.70;99.90
42019;DHT22;27703;51.980;5.848;2023-04-03T08:19:56;6.80;99.90
42019;DHT22;27703;51.980;5.848;2023-04-03T08:22:21;6.90;99.90
42019;DHT22;27703;51.980;5.848;2023-04-03T08:24:47;6.90;99.90
42019;DHT22;27703;51.980;5.848;2023-04-03T08:27:13;7.00;99.90
42019;DHT22;27703;51.980;5.848;2023-04-03T08:29:38;7.10;99.90
42019;DHT22;27703;51.980;5.848;2023-04-03T08:32:05;7.20;99.90
42019;DHT22;27703;51.980;5.848;2023-04-03T08:34:30;7.40;99.90
42019;DHT22;27703;51.980;5.848;2023-04-03T08:37:00;7.50;99.90
42019;DHT22;27703;51.980;5.848;2023-04-03T08:39:26;7.60;99.90
42019;DHT22;27703;51.980;5.848;2023-04-03T08:41:52;7.60;99.90
42019;DHT22;27703;51.980;5.848;2023-04-03T08:49:31;7.60;99.90
42019;DHT22;27703;51.980;5.848;2023-04-03T08:51:59;7.70;99.90
42019;DHT22;27703;51.980;5.848;2023-04-03T08:54:33;7.80;99.90
42019;DHT22;27703;51.980;5.848;2023-04-03T08:57:02;7.90;99.90
42019;DHT22;27703;51.980;5.848;2023-04-03T08:59:33;8.00;99.90
42019;DHT22;27703;51.980;5.848;2023-04-03T09:02:02;8.00;99.50
42019;DHT22;27703;51.980;5.848;2023-04-03T09:04:32;8.20;99.40
42019;DHT22;27703;51.980;5.848;2023-04-03T09:07:04;8.30;98.70
42019;DHT22;27703;51.980;5.848;2023-04-03T09:09:36;8.30;98.40
42019;DHT22;27703;51.980;5.848;2023-04-03T09:14:53;8.50;98.20
42019;DHT22;27703;51.980;5.848;2023-04-03T09:17:42;8.60;96.80
42019;DHT22;27703;51.980;5.848;2023-04-03T09:20:52;8.60;96.00
42019;DHT22;27703;51.980;5.848;2023-04-03T09:26:12;8.60;95.00
42019;DHT22;27703;51.980;5.848;2023-04-03T09:28:40;8.70;94.30
42019;DHT22;27703;51.980;5.848;2023-04-03T09:31:23;8.70;92.90
42019;DHT22;27703;51.980;5.848;2023-04-03T09:33:58;8.70;92.70
42019;DHT22;27703;51.980;5.848;2023-04-03T09:39:10;8.70;92.30
42019;DHT22;27703;51.980;5.848;2023-04-03T09:41:36;8.80;91.00
42019;DHT22;27703;51.980;5.848;2023-04-03T09:44:02;8.80;90.90
42019;DHT22;27703;51.980;5.848;2023-04-03T09:46:32;8.90;90.00
42019;DHT22;27703;51.980;5.848;2023-04-03T09:49:02;8.90;86.80
42019;DHT22;27703;51.980;5.848;2023-04-03T09:51:28;8.80;86.10
42019;DHT22;27703;51.980;5.848;2023-04-03T09:53:55;8.90;87.80
42019;DHT22;27703;51.980;5.848;2023-04-03T09:56:28;9.00;88.30
42019;DHT22;27703;51.980;5.848;2023-04-03T10:01:35;9.20;89.70
42019;DHT22;27703;51.980;5.848;2023-04-03T10:06:31;9.20;85.90
42019;DHT22;27703;51.980;5.848;2023-04-03T10:09:03;9.40;86.10
42019;DHT22;27703;51.980;5.848;2023-04-03T10:11:30;9.40;86.50
42019;DHT22;27703;51.980;5.848;2023-04-03T10:14:00;9.40;85.90
42019;DHT22;27703;51.980;5.848;2023-04-03T10:16:38;9.40;87.10
42019;DHT22;27703;51.980;5.848;2023-04-03T10:19:24;9.40;85.90
42019;DHT22;27703;51.980;5.848;2023-04-03T10:25:03;9.50;84.00
42019;DHT22;27703;51.980;5.848;2023-04-03T10:27:38;9.70;85.70
42019;DHT22;27703;51.980;5.848;2023-04-03T10:33:01;9.70;85.60
42019;DHT22;27703;51.980;5.848;2023-04-03T10:38:27;10.00;85.40
42019;DHT22;27703;51.980;5.848;2023-04-03T10:41:02;10.10;87.00
42019;DHT22;27703;51.980;5.848;2023-04-03T10:46:41;10.30;82.20
42019;DHT22;27703;51.980;5.848;2023-04-03T10:50:21;10.20;80.60
42019;DHT22;27703;51.980;5.848;2023-04-03T10:52:27;10.20;81.30
42019;DHT22;27703;51.980;5.848;2023-04-03T10:57:22;10.30;81.80
42019;DHT22;27703;51.980;5.848;2023-04-03T11:00:03;10.40;82.60
42019;DHT22;27703;51.980;5.848;2023-04-03T11:02:37;10.50;83.20
42019;DHT22;27703;51.980;5.848;2023-04-03T11:06:09;10.50;81.70
42019;DHT22;27703;51.980;5.848;2023-04-03T11:08:12;10.60;80.80
42019;DHT22;27703;51.980;5.848;2023-04-03T11:10:42;10.60;80.40
42019;DHT22;27703;51.980;5.848;2023-04-03T11:16:08;10.70;80.30
42019;DHT22;27703;51.980;5.848;2023-04-03T11:18:45;10.80;80.00
42019;DHT22;27703;51.980;5.848;2023-04-03T11:21:24;10.80;78.60
42019;DHT22;27703;51.980;5.848;2023-04-03T11:23:53;10.80;77.30
42019;DHT22;27703;51.980;5.848;2023-04-03T11:26:23;10.90;77.30
42019;DHT22;27703;51.980;5.848;2023-04-03T11:28:57;10.90;78.60
42019;DHT22;27703;51.980;5.848;2023-04-03T11:37:11;11.10;76.70
42019;DHT22;27703;51.980;5.848;2023-04-03T11:39:38;11.10;74.10
42019;DHT22;27703;51.980;5.848;2023-04-03T11:42:32;11.00;73.10
42019;DHT22;27703;51.980;5.848;2023-04-03T11:48:00;11.00;73.50
42019;DHT22;27703;51.980;5.848;2023-04-03T12:14:04;11.90;73.70
42019;DHT22;27703;51.980;5.848;2023-04-03T12:35:04;12.00;77.30
42019;DHT22;27703;51.980;5.848;2023-04-03T12:38:00;12.00;76.60
42019;DHT22;27703;51.980;5.848;2023-04-03T12:46:03;12.00;73.10
42019;DHT22;27703;51.980;5.848;2023-04-03T12:48:32;12.10;74.50
42019;DHT22;27703;51.980;5.848;2023-04-03T12:50:59;12.10;72.90
42019;DHT22;27703;51.980;5.848;2023-04-03T12:53:28;12.10;73.90
42019;DHT22;27703;51.980;5.848;2023-04-03T12:55:57;12.10;74.00
42019;DHT22;27703;51.980;5.848;2023-04-03T12:58:42;12.10;75.50
42019;DHT22;27703;51.980;5.848;2023-04-03T13:01:14;12.00;75.50
42019;DHT22;27703;51.980;5.848;2023-04-03T13:03:45;12.00;76.40
42019;DHT22;27703;51.980;5.848;2023-04-03T13:06:24;12.20;76.10
42019;DHT22;27703;51.980;5.848;2023-04-03T13:08:57;12.30;74.90
42019;DHT22;27703;51.980;5.848;2023-04-03T13:11:23;12.20;74.40
42019;DHT22;27703;51.980;5.848;2023-04-03T13:14:04;12.10;74.80
42019;DHT22;27703;51.980;5.848;2023-04-03T13:16:31;12.00;76.90
42019;DHT22;27703;51.980;5.848;2023-04-03T13:18:58;12.00;74.60
42019;DHT22;27703;51.980;5.848;2023-04-03T13:21:28;12.10;74.40
42019;DHT22;27703;51.980;5.848;2023-04-03T13:23:58;12.20;73.60
42019;DHT22;27703;51.980;5.848;2023-04-03T13:26:27;12.10;74.90
42019;DHT22;27703;51.980;5.848;2023-04-03T13:28:56;12.10;72.90
42019;DHT22;27703;51.980;5.848;2023-04-03T13:31:29;12.10;72.30
42019;DHT22;27703;51.980;5.848;2023-04-03T13:36:24;12.10;71.70
42019;DHT22;27703;51.980;5.848;2023-04-03T13:39:03;12.10;72.50
42019;DHT22;27703;51.980;5.848;2023-04-03T13:43:57;12.30;72.60
42019;DHT22;27703;51.980;5.848;2023-04-03T13:46:39;12.20;73.50
42019;DHT22;27703;51.980;5.848;2023-04-03T13:49:36;12.30;74.40
42019;DHT22;27703;51.980;5.848;2023-04-03T13:52:52;12.40;73.30
42019;DHT22;27703;51.980;5.848;2023-04-03T13:58:29;12.50;72.30
42019;DHT22;27703;51.980;5.848;2023-04-03T14:01:18;12.70;74.10
42019;DHT22;27703;51.980;5.848;2023-04-03T14:03:53;12.70;73.60
42019;DHT22;27703;51.980;5.848;2023-04-03T14:06:18;12.80;75.00
42019;DHT22;27703;51.980;5.848;2023-04-03T14:08:45;12.80;73.90
42019;DHT22;27703;51.980;5.848;2023-04-03T14:11:18;12.70;72.40
42019;DHT22;27703;51.980;5.848;2023-04-03T14:13:45;12.60;72.70
42019;DHT22;27703;51.980;5.848;2023-04-03T14:16:17;12.60;72.60
42019;DHT22;27703;51.980;5.848;2023-04-03T14:18:44;12.60;73.60
42019;DHT22;27703;51.980;5.848;2023-04-03T14:21:12;12.60;73.30
42019;DHT22;27703;51.980;5.848;2023-04-03T14:23:38;12.60;73.30
42019;DHT22;27703;51.980;5.848;2023-04-03T14:26:08;12.60;74.60
42019;DHT22;27703;51.980;5.848;2023-04-03T14:28:35;12.60;73.40
42019;DHT22;27703;51.980;5.848;2023-04-03T14:31:01;12.60;74.80
42019;DHT22;27703;51.980;5.848;2023-04-03T14:33:27;12.60;76.20
42019;DHT22;27703;51.980;5.848;2023-04-03T14:35:56;12.40;74.90
42019;DHT22;27703;51.980;5.848;2023-04-03T14:40:47;12.30;77.20
42019;DHT22;27703;51.980;5.848;2023-04-03T14:43:13;12.30;75.80
42019;DHT22;27703;51.980;5.848;2023-04-03T14:45:39;12.30;74.90
42019;DHT22;27703;51.980;5.848;2023-04-03T14:48:06;12.30;74.00
42019;DHT22;27703;51.980;5.848;2023-04-03T14:50:35;12.30;75.20
42019;DHT22;27703;51.980;5.848;2023-04-03T14:53:00;12.40;75.30
42019;DHT22;27703;51.980;5.848;2023-04-03T14:55:26;12.40;73.20
42019;DHT22;27703;51.980;5.848;2023-04-03T14:57:53;12.40;72.90
42019;DHT22;27703;51.980;5.848;2023-04-03T15:00:21;12.30;72.70
42019;DHT22;27703;51.980;5.848;2023-04-03T15:02:47;12.20;73.30
42019;DHT22;27703;51.980;5.848;2023-04-03T15:05:14;12.10;73.80
42019;DHT22;27703;51.980;5.848;2023-04-03T15:07:42;12.20;74.40
42019;DHT22;27703;51.980;5.848;2023-04-03T15:12:40;12.50;77.10
42019;DHT22;27703;51.980;5.848;2023-04-03T15:15:06;12.60;75.40
42019;DHT22;27703;51.980;5.848;2023-04-03T15:17:32;12.60;75.90
42019;DHT22;27703;51.980;5.848;2023-04-03T15:19:59;12.50;74.90
42019;DHT22;27703;51.980;5.848;2023-04-03T15:22:24;12.40;73.70
42019;DHT22;27703;51.980;5.848;2023-04-03T15:24:50;12.20;74.20
42019;DHT22;27703;51.980;5.848;2023-04-03T15:27:16;12.10;75.40
42019;DHT22;27703;51.980;5.848;2023-04-03T15:29:43;12.10;75.50
42019;DHT22;27703;51.980;5.848;2023-04-03T15:32:09;12.20;76.70
42019;DHT22;27703;51.980;5.848;2023-04-03T15:34:35;12.10;77.40
42019;DHT22;27703;51.980;5.848;2023-04-03T15:37:01;12.10;76.10
42019;DHT22;27703;51.980;5.848;2023-04-03T15:39:27;12.00;74.90
42019;DHT22;27703;51.980;5.848;2023-04-03T15:41:53;12.00;74.50
42019;DHT22;27703;51.980;5.848;2023-04-03T15:44:19;12.00;75.50
42019;DHT22;27703;51.980;5.848;2023-04-03T15:46:46;12.00;76.40
42019;DHT22;27703;51.980;5.848;2023-04-03T15:49:12;11.90;77.60
42019;DHT22;27703;51.980;5.848;2023-04-03T15:51:38;11.80;80.50
42019;DHT22;27703;51.980;5.848;2023-04-03T15:54:04;11.80;80.30
42019;DHT22;27703;51.980;5.848;2023-04-03T15:56:29;11.90;80.60
42019;DHT22;27703;51.980;5.848;2023-04-03T15:58:55;11.90;80.50
42019;DHT22;27703;51.980;5.848;2023-04-03T16:01:20;11.90;79.50
42019;DHT22;27703;51.980;5.848;2023-04-03T16:03:46;11.90;80.80
42019;DHT22;27703;51.980;5.848;2023-04-03T16:06:16;11.70;80.90
42019;DHT22;27703;51.980;5.848;2023-04-03T16:08:42;11.70;79.90
42019;DHT22;27703;51.980;5.848;2023-04-03T16:11:08;11.70;79.60
42019;DHT22;27703;51.980;5.848;2023-04-03T16:13:34;11.70;79.30
42019;DHT22;27703;51.980;5.848;2023-04-03T16:16:00;11.70;79.60
42019;DHT22;27703;51.980;5.848;2023-04-03T16:18:27;11.80;78.80
42019;DHT22;27703;51.980;5.848;2023-04-03T16:20:53;11.80;79.00
42019;DHT22;27703;51.980;5.848;2023-04-03T16:23:19;11.70;79.60
42019;DHT22;27703;51.980;5.848;2023-04-03T16:25:45;11.70;80.10
42019;DHT22;27703;51.980;5.848;2023-04-03T16:28:16;11.70;79.60
42019;DHT22;27703;51.980;5.848;2023-04-03T16:30:44;11.70;78.90
42019;DHT22;27703;51.980;5.848;2023-04-03T16:33:10;11.70;78.30
42019;DHT22;27703;51.980;5.848;2023-04-03T16:35:36;11.70;79.80
42019;DHT22;27703;51.980;5.848;2023-04-03T16:38:02;11.60;80.50
42019;DHT22;27703;51.980;5.848;2023-04-03T16:40:28;11.60;80.50
42019;DHT22;27703;51.980;5.848;2023-04-03T16:42:53;11.50;81.20
42019;DHT22;27703;51.980;5.848;2023-04-03T16:45:19;11.50;81.20
42019;DHT22;27703;51.980;5.848;2023-04-03T16:47:45;11.30;82.00
42019;DHT22;27703;51.980;5.848;2023-04-03T16:50:11;11.30;83.10
42019;DHT22;27703;51.980;5.848;2023-04-03T16:52:36;11.30;83.00
42019;DHT22;27703;51.980;5.848;2023-04-03T16:55:02;11.40;82.80
42019;DHT22;27703;51.980;5.848;2023-04-03T16:57:28;11.50;82.50
42019;DHT22;27703;51.980;5.848;2023-04-03T16:59:54;11.50;82.30
42019;DHT22;27703;51.980;5.848;2023-04-03T17:02:20;11.50;82.80
42019;DHT22;27703;51.980;5.848;2023-04-03T17:04:46;11.50;83.40
42019;DHT22;27703;51.980;5.848;2023-04-03T17:07:12;11.30;84.50
42019;DHT22;27703;51.980;5.848;2023-04-03T17:09:38;11.30;84.10
42019;DHT22;27703;51.980;5.848;2023-04-03T17:12:04;11.30;83.50
42019;DHT22;27703;51.980;5.848;2023-04-03T17:14:29;11.30;82.60
42019;DHT22;27703;51.980;5.848;2023-04-03T17:16:55;11.30;83.00
42019;DHT22;27703;51.980;5.848;2023-04-03T17:19:21;11.70;82.10
42019;DHT22;27703;51.980;5.848;2023-04-03T17:21:48;12.40;81.00
42019;DHT22;27703;51.980;5.848;2023-04-03T17:24:14;12.90;80.20
42019;DHT22;27703;51.980;5.848;2023-04-03T17:26:40;13.30;79.70
42019;DHT22;27703;51.980;5.848;2023-04-03T17:29:06;13.60;78.80
42019;DHT22;27703;51.980;5.848;2023-04-03T17:31:32;13.30;79.30
42019;DHT22;27703;51.980;5.848;2023-04-03T17:33:57;12.60;79.90
42019;DHT22;27703;51.980;5.848;2023-04-03T17:36:27;12.00;81.40
42019;DHT22;27703;51.980;5.848;2023-04-03T17:38:52;11.50;82.20
42019;DHT22;27703;51.980;5.848;2023-04-03T17:41:18;11.00;84.10